Time;durP1;ratioP1;P1;durP2;ratioP2;P2;SDS_P1;SDS_P2;PMS_P1;PMS_P2;Temp;Humidity;BMP_temperature;BMP_pressure;BME280_temperature;BME280_humidity;BME280_pressure;Samples;Min_cycle;Max_cycle;Signal;HPM_P1;HPM_P2
2022/01/29 00:00:55;;;;;;;9.67;7.67;;;;;;;;;;4960654;28;20228;-64
2022/01/29 00:03:23;;;;;;;10.73;7.67;;;;;;;;;;4954579;28;20258;-64
2022/01/29 00:05:50;;;;;;;13.40;8.10;;;;;;;;;;4957755;28;20279;-64
2022/01/29 00:08:18;;;;;;;9.07;7.30;;;;;;;;;;4959739;28;20770;-65
2022/01/29 00:10:48;;;;;;;10.33;7.27;;;;;;;;;;4953944;28;20227;-64
2022/01/29 00:13:15;;;;;;;12.03;6.73;;;;;;;;;;4953006;28;20243;-65
2022/01/29 00:15:42;;;;;;;11.20;6.87;;;;;;;;;;4971357;28;20206;-65
2022/01/29 00:18:10;;;;;;;11.37;6.93;;;;;;;;;;4961785;28;20216;-65
2022/01/29 00:20:37;;;;;;;12.77;6.80;;;;;;;;;;4955106;28;20228;-65
2022/01/29 00:23:04;;;;;;;9.77;6.83;;;;;;;;;;4958633;28;20273;-65
2022/01/29 00:25:32;;;;;;;10.57;6.57;;;;;;;;;;4962819;28;20208;-64
2022/01/29 00:28:00;;;;;;;8.87;6.10;;;;;;;;;;4970458;28;20207;-64
2022/01/29 00:30:37;;;;;;;9.80;6.77;;;;;;;;;;4958090;28;20231;-65
2022/01/29 00:33:04;;;;;;;9.50;6.37;;;;;;;;;;4958239;28;20217;-65
2022/01/29 00:35:32;;;;;;;9.17;6.20;;;;;;;;;;4960608;28;20228;-65
2022/01/29 00:37:59;;;;;;;11.13;6.60;;;;;;;;;;4966861;28;20211;-63
2022/01/29 00:40:27;;;;;;;12.23;6.17;;;;;;;;;;4953427;28;20737;-65
2022/01/29 00:42:55;;;;;;;10.60;6.10;;;;;;;;;;4958261;28;20238;-63
2022/01/29 00:45:22;;;;;;;9.03;6.10;;;;;;;;;;4958263;28;20644;-64
2022/01/29 00:47:49;;;;;;;11.50;6.50;;;;;;;;;;4970186;28;20664;-65
2022/01/29 00:50:17;;;;;;;15.07;6.40;;;;;;;;;;4958544;28;20641;-65
2022/01/29 00:52:44;;;;;;;9.20;6.47;;;;;;;;;;4974671;28;20897;-64
2022/01/29 00:55:12;;;;;;;8.50;6.30;;;;;;;;;;4961296;28;20274;-65
2022/01/29 00:57:40;;;;;;;10.60;6.30;;;;;;;;;;4956093;28;20683;-65
2022/01/29 01:00:09;;;;;;;6.63;5.60;;;;;;;;;;4954466;28;20212;-64
2022/01/29 01:02:37;;;;;;;6.67;5.50;;;;;;;;;;4954254;28;20253;-63
2022/01/29 01:05:05;;;;;;;10.00;5.53;;;;;;;;;;4957929;28;20213;-64
2022/01/29 01:07:33;;;;;;;6.53;5.30;;;;;;;;;;4957173;28;20217;-64
2022/01/29 01:10:00;;;;;;;8.23;5.40;;;;;;;;;;4961683;28;20261;-65
2022/01/29 01:12:27;;;;;;;10.07;5.27;;;;;;;;;;4958645;28;20210;-65
2022/01/29 01:14:55;;;;;;;7.33;5.23;;;;;;;;;;4959458;28;20269;-65
2022/01/29 01:17:22;;;;;;;9.80;5.03;;;;;;;;;;4962591;28;20693;-65
2022/01/29 01:19:49;;;;;;;7.13;5.13;;;;;;;;;;4953802;28;20208;-65
2022/01/29 01:22:17;;;;;;;8.27;5.20;;;;;;;;;;4955760;28;20580;-64
2022/01/29 01:24:44;;;;;;;6.17;4.60;;;;;;;;;;4956999;28;20228;-64
2022/01/29 01:27:12;;;;;;;8.83;4.90;;;;;;;;;;4967447;28;20211;-65
2022/01/29 01:29:39;;;;;;;7.37;4.50;;;;;;;;;;4968075;28;20224;-63
2022/01/29 01:32:10;;;;;;;6.43;4.50;;;;;;;;;;4961930;28;20224;-65
2022/01/29 01:34:44;;;;;;;7.63;5.00;;;;;;;;;;4960059;28;20203;-65
2022/01/29 01:37:18;;;;;;;6.67;4.67;;;;;;;;;;4961670;28;20213;-64
2022/01/29 01:39:46;;;;;;;6.87;4.90;;;;;;;;;;4973461;28;20210;-64
2022/01/29 01:42:14;;;;;;;5.83;4.63;;;;;;;;;;4968229;28;20223;-63
2022/01/29 01:44:46;;;;;;;7.43;4.90;;;;;;;;;;4961346;28;20302;-64
2022/01/29 01:47:14;;;;;;;6.20;4.30;;;;;;;;;;4954639;28;20389;-62
2022/01/29 01:49:42;;;;;;;8.40;5.03;;;;;;;;;;4964113;28;20295;-64
2022/01/29 01:52:13;;;;;;;7.90;4.60;;;;;;;;;;4957096;28;20895;-62
2022/01/29 01:54:41;;;;;;;6.80;4.63;;;;;;;;;;4965263;28;20279;-64
2022/01/29 01:57:09;;;;;;;6.47;4.00;;;;;;;;;;4975320;28;20214;-64
2022/01/29 01:59:36;;;;;;;8.77;4.70;;;;;;;;;;4975946;28;20244;-64
2022/01/29 02:02:03;;;;;;;5.80;4.40;;;;;;;;;;4968702;28;20227;-64
2022/01/29 02:04:34;;;;;;;8.57;4.57;;;;;;;;;;4967003;28;20228;-64
2022/01/29 02:07:02;;;;;;;7.57;4.60;;;;;;;;;;4962266;28;20240;-63
2022/01/29 02:09:31;;;;;;;4.47;3.90;;;;;;;;;;4957124;28;20216;-65
2022/01/29 02:12:01;;;;;;;6.40;4.00;;;;;;;;;;4961756;28;20236;-64
2022/01/29 02:14:33;;;;;;;7.63;4.57;;;;;;;;;;4971731;28;20201;-63
2022/01/29 02:17:01;;;;;;;5.50;3.93;;;;;;;;;;4961076;28;20247;-65
2022/01/29 02:19:29;;;;;;;5.37;4.47;;;;;;;;;;4950432;28;20220;-64
2022/01/29 02:21:57;;;;;;;5.97;4.33;;;;;;;;;;4952334;28;20236;-62
2022/01/29 02:24:25;;;;;;;7.47;4.30;;;;;;;;;;4966550;28;20232;-64
2022/01/29 02:26:53;;;;;;;6.43;4.50;;;;;;;;;;4969024;28;20205;-65
2022/01/29 02:29:21;;;;;;;6.00;3.83;;;;;;;;;;4959140;28;20211;-64
2022/01/29 02:31:49;;;;;;;6.10;3.97;;;;;;;;;;4960328;28;20971;-63
2022/01/29 02:34:17;;;;;;;6.63;4.40;;;;;;;;;;4952107;28;20632;-64
2022/01/29 02:36:45;;;;;;;4.83;3.87;;;;;;;;;;4961698;28;20818;-64
2022/01/29 02:39:13;;;;;;;5.03;3.93;;;;;;;;;;4963919;28;20212;-64
2022/01/29 02:41:44;;;;;;;5.93;4.20;;;;;;;;;;4963667;28;20237;-63
2022/01/29 02:44:15;;;;;;;5.90;3.83;;;;;;;;;;4971976;28;20312;-64
2022/01/29 02:46:51;;;;;;;5.70;3.67;;;;;;;;;;4971593;28;20234;-64
2022/01/29 02:49:23;;;;;;;5.83;3.97;;;;;;;;;;4958254;28;20263;-64
2022/01/29 02:51:51;;;;;;;4.50;4.07;;;;;;;;;;4969665;28;20225;-63
2022/01/29 02:54:19;;;;;;;5.60;3.50;;;;;;;;;;4956842;28;20797;-65
2022/01/29 02:56:47;;;;;;;4.30;3.60;;;;;;;;;;4957284;28;20211;-64
2022/01/29 02:59:15;;;;;;;5.07;3.93;;;;;;;;;;4962222;28;20578;-63
2022/01/29 03:01:42;;;;;;;6.47;4.03;;;;;;;;;;4965817;28;21546;-65
2022/01/29 03:04:10;;;;;;;5.83;4.07;;;;;;;;;;4955395;28;20238;-62
2022/01/29 03:06:38;;;;;;;4.93;3.90;;;;;;;;;;4961317;28;20236;-64
2022/01/29 03:09:06;;;;;;;5.93;3.80;;;;;;;;;;4963735;28;20210;-65
2022/01/29 03:11:33;;;;;;;5.43;3.60;;;;;;;;;;4963295;28;20232;-63
2022/01/29 03:14:01;;;;;;;4.73;3.73;;;;;;;;;;4958839;28;20208;-64
2022/01/29 03:16:28;;;;;;;4.00;3.50;;;;;;;;;;4962174;28;20616;-64
2022/01/29 03:18:57;;;;;;;5.37;3.63;;;;;;;;;;4954091;28;20231;-64
2022/01/29 03:21:24;;;;;;;7.27;3.50;;;;;;;;;;4958479;28;20789;-64
2022/01/29 03:23:51;;;;;;;6.20;3.43;;;;;;;;;;4965489;28;20251;-64
2022/01/29 03:26:19;;;;;;;4.00;3.00;;;;;;;;;;4964542;28;20726;-64
2022/01/29 03:28:47;;;;;;;3.57;2.97;;;;;;;;;;4952602;28;20207;-63
2022/01/29 03:31:14;;;;;;;3.50;3.10;;;;;;;;;;4964936;28;20291;-64
2022/01/29 03:33:42;;;;;;;4.63;3.10;;;;;;;;;;4961589;28;20215;-63
2022/01/29 03:36:09;;;;;;;3.70;3.13;;;;;;;;;;4965419;28;20305;-63
2022/01/29 03:38:40;;;;;;;6.93;3.70;;;;;;;;;;4955313;28;20220;-64
2022/01/29 03:41:09;;;;;;;3.70;3.30;;;;;;;;;;4953988;28;20243;-64
2022/01/29 03:43:43;;;;;;;5.20;3.47;;;;;;;;;;4960154;28;20229;-64
2022/01/29 03:46:11;;;;;;;3.00;2.80;;;;;;;;;;4961392;28;20234;-64
2022/01/29 03:48:39;;;;;;;3.47;3.07;;;;;;;;;;4968284;28;20204;-64
2022/01/29 03:51:06;;;;;;;4.33;3.00;;;;;;;;;;4957541;28;20292;-64
2022/01/29 03:53:34;;;;;;;2.80;2.60;;;;;;;;;;4962318;28;20217;-64
2022/01/29 03:56:01;;;;;;;4.43;3.03;;;;;;;;;;4958594;28;20200;-63
2022/01/29 03:58:28;;;;;;;2.70;2.50;;;;;;;;;;4964089;28;20563;-63
2022/01/29 04:00:56;;;;;;;2.80;2.60;;;;;;;;;;4968289;28;20230;-64
2022/01/29 04:03:24;;;;;;;3.10;2.67;;;;;;;;;;4942008;28;20217;-64
2022/01/29 04:05:51;;;;;;;4.07;2.90;;;;;;;;;;4961717;28;20208;-62
2022/01/29 04:08:19;;;;;;;3.83;3.10;;;;;;;;;;4956917;28;20655;-64
2022/01/29 04:10:50;;;;;;;3.90;2.87;;;;;;;;;;4955419;28;20240;-64
2022/01/29 04:13:22;;;;;;;5.43;3.10;;;;;;;;;;4964561;28;20252;-63
2022/01/29 04:15:49;;;;;;;2.93;2.70;;;;;;;;;;4962487;28;20328;-63
2022/01/29 04:18:18;;;;;;;5.63;2.87;;;;;;;;;;4955286;28;20289;-65
2022/01/29 04:20:45;;;;;;;3.07;2.77;;;;;;;;;;4972240;28;20228;-63
2022/01/29 04:23:13;;;;;;;3.63;2.57;;;;;;;;;;4951778;28;21601;-65
2022/01/29 04:25:40;;;;;;;5.13;2.20;;;;;;;;;;4956294;28;20268;-64
2022/01/29 04:28:11;;;;;;;3.23;2.87;;;;;;;;;;4972938;28;20211;-63
2022/01/29 04:30:48;;;;;;;2.63;2.43;;;;;;;;;;4970217;28;20231;-63
2022/01/29 04:35:44;;;;;;;3.70;2.60;;;;;;;;;;4965712;28;20224;-64
2022/01/29 04:38:11;;;;;;;4.50;2.70;;;;;;;;;;4969689;28;20238;-63
2022/01/29 04:40:39;;;;;;;4.33;2.70;;;;;;;;;;4957378;28;20236;-64
2022/01/29 04:43:06;;;;;;;3.50;2.40;;;;;;;;;;4959102;28;20231;-62
2022/01/29 04:45:34;;;;;;;3.23;2.30;;;;;;;;;;4965431;28;20229;-64
2022/01/29 04:48:01;;;;;;;2.60;2.40;;;;;;;;;;4971302;28;20661;-64
2022/01/29 04:50:29;;;;;;;5.30;2.60;;;;;;;;;;4960892;28;20225;-64
2022/01/29 04:52:56;;;;;;;2.60;2.40;;;;;;;;;;4958015;28;20280;-63
2022/01/29 04:55:23;;;;;;;3.60;2.40;;;;;;;;;;4960565;28;20263;-64
2022/01/29 04:57:51;;;;;;;3.13;2.30;;;;;;;;;;4968087;28;20205;-64
2022/01/29 05:00:20;;;;;;;2.73;2.27;;;;;;;;;;4958185;28;20235;-65
2022/01/29 05:02:48;;;;;;;2.30;2.10;;;;;;;;;;4959499;28;20210;-64
2022/01/29 05:05:16;;;;;;;2.23;1.90;;;;;;;;;;4954433;28;20603;-64
2022/01/29 05:07:44;;;;;;;2.03;1.90;;;;;;;;;;4960992;28;20219;-65
2022/01/29 05:10:12;;;;;;;4.23;2.13;;;;;;;;;;4967429;28;20200;-64
2022/01/29 05:12:52;;;;;;;4.60;1.80;;;;;;;;;;4949991;28;20665;-64
2022/01/29 05:28:58;;;;;;;2.10;2.00;;;;;;;;;;4971851;28;20211;-64
2022/01/29 05:31:25;;;;;;;2.20;2.07;;;;;;;;;;4965644;28;20636;-64
2022/01/29 05:33:53;;;;;;;2.33;2.13;;;;;;;;;;4955728;28;20638;-64
2022/01/29 05:36:20;;;;;;;2.57;2.03;;;;;;;;;;4958290;28;20205;-63
2022/01/29 05:38:48;;;;;;;2.30;1.83;;;;;;;;;;4980151;28;20380;-64
2022/01/29 05:41:15;;;;;;;2.67;2.00;;;;;;;;;;4965451;28;20631;-64
2022/01/29 05:43:43;;;;;;;3.73;2.40;;;;;;;;;;4967728;28;20623;-64
2022/01/29 05:46:12;;;;;;;2.30;2.10;;;;;;;;;;4954358;28;20224;-64
2022/01/29 05:48:39;;;;;;;3.80;2.23;;;;;;;;;;4972610;28;20633;-66
2022/01/29 05:51:07;;;;;;;4.00;2.30;;;;;;;;;;4977203;28;20853;-63
2022/01/29 05:53:34;;;;;;;1.97;1.87;;;;;;;;;;4971363;28;20232;-63
2022/01/29 05:56:02;;;;;;;3.30;2.17;;;;;;;;;;4982901;28;20213;-62
2022/01/29 05:58:29;;;;;;;2.50;2.30;;;;;;;;;;4963447;28;20232;-64
2022/01/29 06:00:57;;;;;;;2.73;2.43;;;;;;;;;;4966522;28;20710;-65
2022/01/29 06:03:25;;;;;;;3.93;2.40;;;;;;;;;;4975317;28;20209;-63
2022/01/29 06:05:52;;;;;;;2.63;2.20;;;;;;;;;;4972124;28;20706;-64
2022/01/29 06:08:20;;;;;;;3.87;2.20;;;;;;;;;;4967264;28;20223;-62
2022/01/29 06:10:47;;;;;;;3.67;2.63;;;;;;;;;;4961009;28;20235;-64
2022/01/29 06:13:16;;;;;;;3.80;2.63;;;;;;;;;;4968071;28;20210;-64
2022/01/29 06:15:44;;;;;;;4.93;2.67;;;;;;;;;;4970440;28;20209;-64
2022/01/29 06:18:16;;;;;;;4.13;2.63;;;;;;;;;;4955714;28;20869;-64
2022/01/29 06:20:45;;;;;;;4.37;2.30;;;;;;;;;;4970091;28;20749;-64
2022/01/29 06:23:13;;;;;;;3.50;2.43;;;;;;;;;;4963400;28;20221;-64
2022/01/29 06:25:41;;;;;;;4.20;2.83;;;;;;;;;;4962031;28;20287;-64
2022/01/29 06:28:09;;;;;;;6.80;2.87;;;;;;;;;;4966874;28;20205;-64
2022/01/29 06:30:36;;;;;;;4.77;2.87;;;;;;;;;;4961589;28;20751;-64
2022/01/29 06:33:08;;;;;;;4.73;2.40;;;;;;;;;;4967885;28;20659;-64
2022/01/29 06:35:36;;;;;;;5.30;2.90;;;;;;;;;;4967106;28;20217;-64
2022/01/29 06:38:03;;;;;;;3.53;2.70;;;;;;;;;;4964653;28;20258;-62
2022/01/29 06:40:31;;;;;;;3.10;2.73;;;;;;;;;;4955812;28;20243;-64
2022/01/29 06:43:01;;;;;;;3.50;2.67;;;;;;;;;;4979529;28;21093;-65
2022/01/29 06:45:29;;;;;;;2.30;2.17;;;;;;;;;;4959693;28;20307;-65
2022/01/29 06:47:56;;;;;;;4.60;2.80;;;;;;;;;;4950555;28;20209;-64
2022/01/29 06:50:24;;;;;;;6.47;2.90;;;;;;;;;;4962886;28;20225;-63
2022/01/29 06:52:51;;;;;;;6.00;3.93;;;;;;;;;;4968747;28;20227;-64
2022/01/29 06:55:19;;;;;;;5.40;3.10;;;;;;;;;;4961146;28;20234;-64
2022/01/29 06:57:47;;;;;;;3.60;3.30;;;;;;;;;;4967837;28;20624;-64
2022/01/29 07:00:34;;;;;;;7.00;3.63;;;;;;;;;;4953882;28;20283;-65
2022/01/29 07:03:02;;;;;;;8.17;6.90;;;;;;;;;;4957834;28;20242;-64
2022/01/29 07:05:29;;;;;;;7.33;5.67;;;;;;;;;;4958078;28;20324;-63
2022/01/29 07:07:57;;;;;;;9.77;8.37;;;;;;;;;;4950008;28;20550;-63
2022/01/29 07:10:25;;;;;;;11.03;8.53;;;;;;;;;;4961052;28;20667;-64
2022/01/29 07:12:53;;;;;;;3.20;2.90;;;;;;;;;;4962084;28;20214;-64
2022/01/29 07:15:20;;;;;;;3.97;2.83;;;;;;;;;;4972076;28;20208;-64
2022/01/29 07:17:47;;;;;;;4.40;3.27;;;;;;;;;;4960070;28;20202;-64
2022/01/29 07:20:15;;;;;;;5.17;4.67;;;;;;;;;;4961055;28;20741;-62
2022/01/29 07:22:42;;;;;;;4.47;4.07;;;;;;;;;;4950037;28;20291;-63
2022/01/29 07:25:10;;;;;;;4.03;3.57;;;;;;;;;;4960603;28;20234;-64
2022/01/29 07:27:37;;;;;;;6.30;5.63;;;;;;;;;;4967944;28;20213;-65
2022/01/29 07:30:05;;;;;;;4.30;3.90;;;;;;;;;;4961674;28;20262;-64
2022/01/29 07:32:33;;;;;;;4.20;3.20;;;;;;;;;;4954836;28;20220;-64
2022/01/29 07:35:00;;;;;;;3.97;3.30;;;;;;;;;;4955011;28;20265;-64
2022/01/29 07:37:27;;;;;;;5.93;3.20;;;;;;;;;;4957016;28;20213;-65
2022/01/29 07:39:55;;;;;;;3.67;3.10;;;;;;;;;;4967192;28;20213;-64
2022/01/29 07:42:22;;;;;;;5.03;3.43;;;;;;;;;;4971135;28;20576;-63
2022/01/29 07:44:49;;;;;;;4.07;2.90;;;;;;;;;;4955963;28;21192;-65
2022/01/29 07:47:17;;;;;;;3.27;2.97;;;;;;;;;;4958688;28;20313;-63
2022/01/29 07:49:44;;;;;;;2.97;2.50;;;;;;;;;;4952381;28;20213;-64
2022/01/29 07:52:11;;;;;;;3.40;2.77;;;;;;;;;;4953868;28;20233;-64
2022/01/29 07:54:39;;;;;;;4.47;4.07;;;;;;;;;;4958883;28;20347;-63
2022/01/29 07:57:06;;;;;;;3.80;3.43;;;;;;;;;;4959405;28;20243;-64
2022/01/29 07:59:34;;;;;;;3.17;2.83;;;;;;;;;;4965422;28;20805;-64
2022/01/29 08:02:01;;;;;;;7.20;3.37;;;;;;;;;;4965436;28;20307;-63
2022/01/29 08:04:29;;;;;;;3.30;2.57;;;;;;;;;;4967685;28;20212;-65
2022/01/29 08:06:56;;;;;;;3.40;3.10;;;;;;;;;;4958169;28;20208;-65
2022/01/29 08:09:23;;;;;;;3.67;2.80;;;;;;;;;;4963354;28;20220;-64
2022/01/29 08:11:51;;;;;;;3.63;2.10;;;;;;;;;;4969391;28;20715;-64
2022/01/29 08:14:18;;;;;;;1.93;1.83;;;;;;;;;;4958332;28;20851;-64
2022/01/29 08:16:46;;;;;;;2.67;1.63;;;;;;;;;;4954357;28;20219;-64
2022/01/29 08:19:13;;;;;;;2.83;1.70;;;;;;;;;;4949309;28;20279;-65
2022/01/29 08:21:41;;;;;;;1.73;1.63;;;;;;;;;;4957997;28;20315;-65
2022/01/29 08:24:08;;;;;;;1.63;1.53;;;;;;;;;;4966379;28;20212;-65
2022/01/29 08:26:35;;;;;;;2.20;1.90;;;;;;;;;;4951851;28;20236;-64
2022/01/29 08:29:04;;;;;;;1.97;1.40;;;;;;;;;;4958946;28;20224;-64
2022/01/29 08:31:32;;;;;;;1.80;1.50;;;;;;;;;;4947799;28;20238;-64
2022/01/29 08:34:01;;;;;;;1.47;1.37;;;;;;;;;;4945799;28;20227;-64
2022/01/29 08:36:29;;;;;;;1.40;1.30;;;;;;;;;;4973471;28;20212;-62
2022/01/29 08:38:58;;;;;;;1.63;1.53;;;;;;;;;;4960109;28;20303;-65
2022/01/29 08:41:27;;;;;;;2.70;1.70;;;;;;;;;;4952324;28;20728;-64
2022/01/29 08:43:54;;;;;;;1.57;1.47;;;;;;;;;;4943541;28;20760;-62
2022/01/29 08:46:22;;;;;;;1.60;1.40;;;;;;;;;;4956132;28;20232;-64
2022/01/29 08:48:50;;;;;;;1.57;1.47;;;;;;;;;;4954470;28;20261;-64
2022/01/29 08:51:18;;;;;;;1.87;1.60;;;;;;;;;;4949037;28;20229;-64
2022/01/29 08:53:45;;;;;;;2.03;1.63;;;;;;;;;;4954072;28;20302;-62
2022/01/29 08:56:16;;;;;;;3.90;1.57;;;;;;;;;;4950894;28;21706;-62
2022/01/29 08:58:44;;;;;;;2.33;1.63;;;;;;;;;;4959225;28;20212;-65
2022/01/29 09:01:12;;;;;;;1.67;1.50;;;;;;;;;;4962074;28;20237;-63
2022/01/29 09:03:39;;;;;;;1.60;1.40;;;;;;;;;;4955053;28;20212;-64
2022/01/29 09:06:07;;;;;;;1.40;1.40;;;;;;;;;;4949578;28;20291;-63
2022/01/29 09:08:34;;;;;;;1.73;1.63;;;;;;;;;;4960386;28;20234;-63
2022/01/29 09:11:02;;;;;;;1.70;1.60;;;;;;;;;;4962020;28;20264;-64
2022/01/29 09:13:29;;;;;;;1.70;1.60;;;;;;;;;;4955586;28;20204;-64
2022/01/29 09:15:57;;;;;;;3.00;1.80;;;;;;;;;;4957294;28;20835;-64
2022/01/29 09:18:26;;;;;;;1.90;1.80;;;;;;;;;;4947796;28;20221;-64
2022/01/29 09:20:53;;;;;;;2.80;2.10;;;;;;;;;;4948137;28;20236;-64
2022/01/29 09:23:21;;;;;;;11.30;6.03;;;;;;;;;;4950657;28;21697;-62
2022/01/29 09:25:48;;;;;;;10.53;4.20;;;;;;;;;;4945790;28;20303;-64
2022/01/29 09:28:16;;;;;;;2.87;2.10;;;;;;;;;;4960598;28;20257;-65
2022/01/29 09:30:44;;;;;;;1.73;1.63;;;;;;;;;;4957409;28;20225;-64
2022/01/29 09:33:12;;;;;;;2.70;1.50;;;;;;;;;;4947268;28;20212;-65
2022/01/29 09:35:40;;;;;;;2.93;1.83;;;;;;;;;;4957592;28;20209;-64
2022/01/29 09:38:08;;;;;;;2.67;1.73;;;;;;;;;;4950652;28;20225;-64
2022/01/29 09:40:35;;;;;;;4.00;1.63;;;;;;;;;;4959852;28;20336;-65
2022/01/29 09:43:05;;;;;;;2.20;1.80;;;;;;;;;;4964672;28;20217;-65
2022/01/29 09:45:33;;;;;;;2.57;2.37;;;;;;;;;;4945240;28;20232;-63
2022/01/29 09:48:02;;;;;;;3.13;1.40;;;;;;;;;;4956101;28;20201;-63
2022/01/29 09:50:34;;;;;;;1.77;1.67;;;;;;;;;;4965628;28;20225;-64
2022/01/29 09:53:03;;;;;;;2.43;2.20;;;;;;;;;;4945429;28;20205;-64
2022/01/29 09:55:30;;;;;;;2.47;1.70;;;;;;;;;;4952048;28;20225;-64
2022/01/29 09:57:58;;;;;;;2.70;1.73;;;;;;;;;;4951450;28;20268;-65
2022/01/29 10:00:26;;;;;;;1.97;1.83;;;;;;;;;;4959878;28;20236;-63
2022/01/29 10:03:13;;;;;;;2.30;1.57;;;;;;;;;;4972885;28;20254;-65
2022/01/29 10:05:42;;;;;;;2.00;1.90;;;;;;;;;;4960737;28;20241;-65
2022/01/29 10:08:10;;;;;;;2.37;2.10;;;;;;;;;;4969809;28;20298;-64
2022/01/29 10:10:48;;;;;;;1.77;1.67;;;;;;;;;;4973641;28;20231;-65
2022/01/29 10:13:22;;;;;;;2.97;1.80;;;;;;;;;;4953117;28;20915;-63
2022/01/29 10:15:52;;;;;;;2.03;1.83;;;;;;;;;;4953830;28;20216;-63
2022/01/29 10:18:23;;;;;;;1.70;1.60;;;;;;;;;;4959241;28;20221;-65
2022/01/29 10:20:51;;;;;;;2.00;1.80;;;;;;;;;;4970365;28;20911;-65
2022/01/29 10:23:18;;;;;;;2.30;1.60;;;;;;;;;;4951830;28;20217;-62
2022/01/29 10:25:51;;;;;;;2.07;1.60;;;;;;;;;;4961994;28;20237;-64
2022/01/29 10:28:20;;;;;;;2.73;1.50;;;;;;;;;;4963983;28;20206;-64
2022/01/29 10:30:51;;;;;;;2.33;1.70;;;;;;;;;;4965296;28;20220;-65
2022/01/29 10:33:28;;;;;;;1.67;1.57;;;;;;;;;;4973300;28;20242;-64
2022/01/29 10:35:57;;;;;;;2.13;1.40;;;;;;;;;;4971763;28;20227;-62
2022/01/29 10:38:28;;;;;;;1.40;1.30;;;;;;;;;;4973549;28;20704;-65
2022/01/29 10:41:22;;;;;;;1.40;1.30;;;;;;;;;;4966079;28;20237;-63
2022/01/29 10:44:10;;;;;;;1.27;1.17;;;;;;;;;;4970523;28;20208;-64
2022/01/29 10:46:41;;;;;;;1.90;1.70;;;;;;;;;;4969714;28;20229;-65
2022/01/29 10:49:17;;;;;;;2.50;2.13;;;;;;;;;;4969714;28;20208;-65
2022/01/29 10:52:20;;;;;;;2.27;1.60;;;;;;;;;;4975822;28;20231;-65
2022/01/29 10:54:49;;;;;;;3.17;1.63;;;;;;;;;;4939156;28;20213;-63
2022/01/29 10:57:17;;;;;;;3.90;3.27;;;;;;;;;;4954794;28;20213;-64
2022/01/29 10:59:49;;;;;;;1.37;1.27;;;;;;;;;;4965062;28;20606;-64
2022/01/29 11:02:17;;;;;;;3.20;2.60;;;;;;;;;;4970827;28;20276;-64
2022/01/29 11:04:46;;;;;;;10.07;6.57;;;;;;;;;;4968294;28;20226;-62
2022/01/29 11:07:18;;;;;;;2.03;1.93;;;;;;;;;;4963728;28;20294;-65
2022/01/29 11:09:47;;;;;;;1.10;1.00;;;;;;;;;;4965886;28;20197;-65
2022/01/29 11:12:18;;;;;;;1.33;1.20;;;;;;;;;;4951837;28;20237;-63
2022/01/29 11:14:45;;;;;;;1.23;1.17;;;;;;;;;;4966221;28;20200;-64
2022/01/29 11:17:12;;;;;;;1.40;1.00;;;;;;;;;;4953744;28;20269;-64
2022/01/29 11:19:41;;;;;;;1.30;1.13;;;;;;;;;;4943509;28;20220;-65
2022/01/29 11:22:09;;;;;;;1.10;1.10;;;;;;;;;;4951416;28;20786;-65
2022/01/29 11:24:38;;;;;;;1.10;1.10;;;;;;;;;;4952300;28;20217;-64
2022/01/29 11:27:38;;;;;;;0.80;0.80;;;;;;;;;;4969936;28;20264;-65
2022/01/29 11:30:08;;;;;;;0.90;0.90;;;;;;;;;;4910095;28;20288;-63
2022/01/29 11:32:41;;;;;;;0.80;0.80;;;;;;;;;;4979090;28;20233;-65
2022/01/29 11:35:11;;;;;;;0.80;0.80;;;;;;;;;;4941961;28;20335;-63
2022/01/29 11:37:40;;;;;;;0.80;0.80;;;;;;;;;;4983679;28;20212;-64
2022/01/29 11:40:16;;;;;;;0.90;0.90;;;;;;;;;;4957505;28;20218;-65
2022/01/29 11:43:04;;;;;;;0.90;0.90;;;;;;;;;;4963590;28;20212;-64
2022/01/29 11:45:41;;;;;;;1.20;1.10;;;;;;;;;;4965126;28;20219;-64
2022/01/29 11:48:31;;;;;;;0.93;0.90;;;;;;;;;;4958653;28;20216;-64
2022/01/29 11:51:19;;;;;;;0.90;0.90;;;;;;;;;;4947970;28;20228;-64
2022/01/29 11:53:48;;;;;;;0.90;0.90;;;;;;;;;;4947048;28;20205;-65
2022/01/29 11:56:24;;;;;;;1.13;0.80;;;;;;;;;;4963778;28;20304;-64
2022/01/29 11:59:12;;;;;;;0.80;0.80;;;;;;;;;;4958611;28;20224;-64
2022/01/29 12:01:39;;;;;;;0.77;0.77;;;;;;;;;;4948908;28;20226;-64
2022/01/29 12:04:07;;;;;;;0.80;0.80;;;;;;;;;;4962590;28;20221;-65
2022/01/29 12:06:40;;;;;;;2.10;0.80;;;;;;;;;;4954588;28;20227;-65
2022/01/29 12:09:20;;;;;;;1.23;0.90;;;;;;;;;;4963447;28;20210;-64
2022/01/29 12:12:06;;;;;;;0.70;0.70;;;;;;;;;;4942741;28;20227;-64
2022/01/29 12:14:33;;;;;;;0.80;0.80;;;;;;;;;;4955963;28;20254;-64
2022/01/29 12:17:02;;;;;;;0.70;0.70;;;;;;;;;;4943249;28;20213;-63
2022/01/29 12:19:37;;;;;;;0.90;0.90;;;;;;;;;;4932189;28;20271;-64
2022/01/29 12:22:14;;;;;;;0.90;0.90;;;;;;;;;;4940404;28;20726;-63
2022/01/29 12:24:42;;;;;;;1.73;1.10;;;;;;;;;;4940301;28;20212;-63
2022/01/29 12:27:09;;;;;;;1.20;1.10;;;;;;;;;;4963268;28;20237;-62
2022/01/29 12:29:37;;;;;;;0.90;0.83;;;;;;;;;;4954344;28;20207;-63
2022/01/29 12:32:05;;;;;;;1.00;1.00;;;;;;;;;;4961204;28;20707;-64
2022/01/29 12:34:37;;;;;;;0.77;0.77;;;;;;;;;;4951495;28;20545;-63
2022/01/29 12:37:12;;;;;;;0.90;0.90;;;;;;;;;;4953198;28;21455;-65
2022/01/29 12:39:40;;;;;;;1.70;1.00;;;;;;;;;;4932324;28;20227;-64
2022/01/29 12:44:42;;;;;;;1.40;1.30;;;;;;;;;;4949904;28;20228;-64
2022/01/29 12:47:24;;;;;;;1.20;1.10;;;;;;;;;;4958452;28;20328;-64
2022/01/29 12:49:51;;;;;;;1.03;1.00;;;;;;;;;;4941345;28;20208;-65
2022/01/29 12:52:19;;;;;;;4.37;1.23;;;;;;;;;;4950311;28;20939;-63
2022/01/29 12:54:59;;;;;;;1.07;1.07;;;;;;;;;;4950407;28;20246;-64
2022/01/29 12:57:41;;;;;;;1.10;1.00;;;;;;;;;;4951844;28;20264;-64
2022/01/29 13:00:10;;;;;;;1.10;1.10;;;;;;;;;;4949009;28;20217;-63
2022/01/29 13:02:38;;;;;;;1.53;1.17;;;;;;;;;;4957110;28;20529;-64
2022/01/29 13:05:07;;;;;;;1.03;1.03;;;;;;;;;;4935825;28;20208;-64
2022/01/29 13:07:36;;;;;;;1.40;1.10;;;;;;;;;;4944438;28;20232;-65
2022/01/29 13:10:04;;;;;;;2.27;1.20;;;;;;;;;;4955891;28;20209;-63
2022/01/29 13:12:38;;;;;;;0.90;0.90;;;;;;;;;;4953938;28;20208;-63
2022/01/29 13:15:07;;;;;;;1.57;1.20;;;;;;;;;;4944558;28;20662;-62
2022/01/29 13:17:34;;;;;;;1.37;1.27;;;;;;;;;;4954704;28;20208;-64
2022/01/29 13:20:02;;;;;;;1.50;1.40;;;;;;;;;;4966836;28;20212;-64
2022/01/29 13:22:30;;;;;;;1.60;1.23;;;;;;;;;;4960701;28;20711;-63
2022/01/29 13:25:05;;;;;;;1.20;1.10;;;;;;;;;;4970725;28;20577;-64
2022/01/29 13:27:34;;;;;;;1.80;1.40;;;;;;;;;;4955902;28;20257;-65
2022/01/29 13:30:21;;;;;;;1.43;1.30;;;;;;;;;;4960026;28;20618;-64
2022/01/29 13:32:50;;;;;;;1.00;1.00;;;;;;;;;;4959542;28;20659;-64
2022/01/29 13:35:21;;;;;;;1.37;1.20;;;;;;;;;;4959029;28;20204;-63
2022/01/29 13:37:58;;;;;;;1.17;1.17;;;;;;;;;;4962268;28;20213;-63
2022/01/29 13:40:35;;;;;;;1.10;1.10;;;;;;;;;;4962101;28;20314;-63
2022/01/29 13:43:06;;;;;;;2.67;1.47;;;;;;;;;;4958720;28;21176;-63
2022/01/29 13:45:34;;;;;;;1.47;1.37;;;;;;;;;;4970262;28;20212;-61
2022/01/29 13:48:07;;;;;;;1.50;1.40;;;;;;;;;;4960424;28;20232;-63
2022/01/29 13:50:36;;;;;;;2.67;1.90;;;;;;;;;;4963659;28;20248;-64
2022/01/29 13:53:03;;;;;;;1.50;1.40;;;;;;;;;;4963399;28;20209;-64
2022/01/29 13:55:31;;;;;;;3.23;2.50;;;;;;;;;;4960012;28;20213;-63
2022/01/29 13:58:17;;;;;;;1.90;1.80;;;;;;;;;;4960387;28;20761;-63
2022/01/29 14:00:57;;;;;;;1.60;1.50;;;;;;;;;;4965201;28;20267;-64
2022/01/29 14:03:41;;;;;;;1.70;1.60;;;;;;;;;;4963497;28;20296;-63
2022/01/29 14:06:30;;;;;;;1.47;1.37;;;;;;;;;;4960584;28;20578;-63
2022/01/29 14:09:42;;;;;;;1.20;1.20;;;;;;;;;;4963550;28;20262;-64
2022/01/29 14:12:28;;;;;;;1.20;1.10;;;;;;;;;;4988939;28;20232;-63
2022/01/29 14:14:57;;;;;;;1.63;1.30;;;;;;;;;;4978542;28;20265;-63
2022/01/29 14:17:27;;;;;;;1.87;1.27;;;;;;;;;;4968650;28;20231;-64
2022/01/29 14:19:57;;;;;;;3.03;1.30;;;;;;;;;;4963903;28;20208;-64
2022/01/29 14:22:25;;;;;;;1.40;1.30;;;;;;;;;;4971530;28;20296;-63
2022/01/29 14:24:53;;;;;;;1.30;1.30;;;;;;;;;;4974787;28;20208;-62
2022/01/29 14:27:21;;;;;;;1.60;1.50;;;;;;;;;;4969664;28;20685;-64
2022/01/29 14:29:49;;;;;;;1.47;1.37;;;;;;;;;;4972079;28;20217;-65
2022/01/29 14:32:37;;;;;;;1.97;1.20;;;;;;;;;;4973931;28;20260;-63
2022/01/29 14:35:09;;;;;;;1.00;1.00;;;;;;;;;;4972465;28;20205;-63
2022/01/29 14:37:36;;;;;;;4.93;2.90;;;;;;;;;;4961764;28;20221;-64
2022/01/29 14:40:05;;;;;;;7.30;4.77;;;;;;;;;;4969803;28;20267;-63
2022/01/29 14:42:36;;;;;;;11.10;6.40;;;;;;;;;;4980927;28;20270;-64
2022/01/29 14:45:04;;;;;;;4.60;2.57;;;;;;;;;;4970465;28;20681;-64
2022/01/29 14:47:32;;;;;;;2.30;2.10;;;;;;;;;;4971808;28;20229;-63
2022/01/29 14:50:02;;;;;;;1.23;1.10;;;;;;;;;;4968085;28;20223;-64
2022/01/29 14:52:30;;;;;;;2.90;2.33;;;;;;;;;;4965691;28;20311;-62
2022/01/29 14:54:57;;;;;;;2.20;2.10;;;;;;;;;;4953927;28;20255;-63
2022/01/29 14:57:25;;;;;;;2.03;0.90;;;;;;;;;;4965601;28;20726;-64
2022/01/29 14:59:52;;;;;;;1.20;1.20;;;;;;;;;;4968594;28;20590;-64
2022/01/29 15:02:20;;;;;;;1.13;1.00;;;;;;;;;;4958359;28;20774;-64
2022/01/29 15:05:08;;;;;;;0.90;0.90;;;;;;;;;;4960252;28;20213;-64
2022/01/29 15:07:35;;;;;;;1.13;1.13;;;;;;;;;;4966816;28;20748;-63
2022/01/29 15:10:05;;;;;;;0.90;0.90;;;;;;;;;;4962316;28;20643;-64
2022/01/29 15:12:33;;;;;;;0.80;0.80;;;;;;;;;;4950393;28;20201;-64
2022/01/29 15:15:01;;;;;;;1.77;1.00;;;;;;;;;;4963136;28;20206;-63
2022/01/29 15:17:28;;;;;;;1.00;1.00;;;;;;;;;;4959923;28;21147;-63